sensor_id;sensor_type;location;lat;lon;timestamp;pressure;altitude;pressure_sealevel;temperature;humidity
51526;BME280;37611;51.794;21.590;2023-04-08T00:03:19;100529.23;;;4.06;100.00
51526;BME280;37611;51.794;21.590;2023-04-08T00:07:21;100528.11;;;3.99;100.00
51526;BME280;37611;51.794;21.590;2023-04-08T00:11:23;100529.84;;;3.94;100.00
51526;BME280;37611;51.794;21.590;2023-04-08T00:15:24;100528.63;;;3.88;100.00
51526;BME280;37611;51.794;21.590;2023-04-08T00:19:26;100532.33;;;3.82;100.00
51526;BME280;37611;51.794;21.590;2023-04-08T00:23:27;100529.63;;;3.78;100.00
51526;BME280;37611;51.794;21.590;2023-04-08T00:27:29;100533.91;;;3.74;100.00
51526;BME280;37611;51.794;21.590;2023-04-08T00:31:31;100533.87;;;3.68;100.00
51526;BME280;37611;51.794;21.590;2023-04-08T00:35:33;100530.27;;;3.65;100.00
51526;BME280;37611;51.794;21.590;2023-04-08T00:39:36;100527.00;;;3.62;100.00
51526;BME280;37611;51.794;21.590;2023-04-08T00:43:38;100526.20;;;3.58;100.00
51526;BME280;37611;51.794;21.590;2023-04-08T00:47:39;100524.84;;;3.52;100.00
51526;BME280;37611;51.794;21.590;2023-04-08T00:51:41;100528.38;;;3.42;100.00
51526;BME280;37611;51.794;21.590;2023-04-08T00:55:43;100534.13;;;3.27;100.00
51526;BME280;37611;51.794;21.590;2023-04-08T00:59:45;100535.68;;;3.10;100.00
51526;BME280;37611;51.794;21.590;2023-04-08T01:03:57;100542.13;;;2.98;100.00
51526;BME280;37611;51.794;21.590;2023-04-08T01:08:04;100545.02;;;2.86;100.00
51526;BME280;37611;51.794;21.590;2023-04-08T01:12:08;100544.88;;;2.77;100.00
51526;BME280;37611;51.794;21.590;2023-04-08T01:16:14;100540.59;;;2.67;100.00
51526;BME280;37611;51.794;21.590;2023-04-08T01:20:17;100536.08;;;2.59;100.00
51526;BME280;37611;51.794;21.590;2023-04-08T01:24:27;100542.38;;;2.51;100.00
51526;BME280;37611;51.794;21.590;2023-04-08T01:28:30;100541.85;;;2.33;100.00
51526;BME280;37611;51.794;21.590;2023-04-08T01:32:34;100540.79;;;2.15;100.00
51526;BME280;37611;51.794;21.590;2023-04-08T01:36:37;100543.39;;;2.02;100.00
51526;BME280;37611;51.794;21.590;2023-04-08T01:40:40;100540.94;;;1.90;100.00
51526;BME280;37611;51.794;21.590;2023-04-08T01:44:42;100544.91;;;1.78;100.00
51526;BME280;37611;51.794;21.590;2023-04-08T01:48:46;100549.33;;;1.66;100.00
51526;BME280;37611;51.794;21.590;2023-04-08T01:52:49;100550.59;;;1.55;100.00
51526;BME280;37611;51.794;21.590;2023-04-08T01:56:54;100559.02;;;1.43;100.00
51526;BME280;37611;51.794;21.590;2023-04-08T02:00:58;100565.71;;;1.33;100.00
51526;BME280;37611;51.794;21.590;2023-04-08T02:05:00;100564.36;;;1.30;100.00
51526;BME280;37611;51.794;21.590;2023-04-08T02:09:02;100566.84;;;1.25;100.00
51526;BME280;37611;51.794;21.590;2023-04-08T02:13:06;100566.53;;;1.17;100.00
51526;BME280;37611;51.794;21.590;2023-04-08T02:17:15;100571.97;;;1.12;100.00
51526;BME280;37611;51.794;21.590;2023-04-08T02:21:21;100571.98;;;1.09;100.00
51526;BME280;37611;51.794;21.590;2023-04-08T02:25:28;100573.75;;;1.08;100.00
51526;BME280;37611;51.794;21.590;2023-04-08T02:29:31;100577.89;;;1.08;100.00
51526;BME280;37611;51.794;21.590;2023-04-08T02:33:34;100580.23;;;1.03;100.00
51526;BME280;37611;51.794;21.590;2023-04-08T02:37:37;100586.02;;;0.93;100.00
51526;BME280;37611;51.794;21.590;2023-04-08T02:41:39;100586.35;;;0.87;100.00
51526;BME280;37611;51.794;21.590;2023-04-08T02:45:42;100590.66;;;0.87;100.00
51526;BME280;37611;51.794;21.590;2023-04-08T02:49:44;100594.14;;;0.90;100.00
51526;BME280;37611;51.794;21.590;2023-04-08T02:53:46;100600.73;;;0.89;100.00
51526;BME280;37611;51.794;21.590;2023-04-08T02:57:48;100604.12;;;0.86;100.00
51526;BME280;37611;51.794;21.590;2023-04-08T03:01:50;100604.39;;;0.84;100.00
51526;BME280;37611;51.794;21.590;2023-04-08T03:05:52;100604.17;;;0.85;100.00
51526;BME280;37611;51.794;21.590;2023-04-08T03:09:54;100604.13;;;0.87;100.00
51526;BME280;37611;51.794;21.590;2023-04-08T03:13:56;100599.95;;;0.87;100.00
51526;BME280;37611;51.794;21.590;2023-04-08T03:17:58;100601.40;;;0.89;100.00
51526;BME280;37611;51.794;21.590;2023-04-08T03:22:00;100602.47;;;0.88;100.00
51526;BME280;37611;51.794;21.590;2023-04-08T03:26:01;100603.03;;;0.88;100.00
51526;BME280;37611;51.794;21.590;2023-04-08T03:30:03;100605.09;;;0.84;100.00
51526;BME280;37611;51.794;21.590;2023-04-08T03:34:05;100605.46;;;0.81;100.00
51526;BME280;37611;51.794;21.590;2023-04-08T03:38:07;100608.66;;;0.71;100.00
51526;BME280;37611;51.794;21.590;2023-04-08T03:42:09;100613.89;;;0.63;100.00
51526;BME280;37611;51.794;21.590;2023-04-08T03:46:10;100618.67;;;0.57;100.00
51526;BME280;37611;51.794;21.590;2023-04-08T03:50:12;100619.93;;;0.52;100.00
51526;BME280;37611;51.794;21.590;2023-04-08T03:54:14;100623.38;;;0.48;100.00
51526;BME280;37611;51.794;21.590;2023-04-08T03:58:16;100630.18;;;0.46;100.00
51526;BME280;37611;51.794;21.590;2023-04-08T04:02:18;100633.58;;;0.47;100.00
51526;BME280;37611;51.794;21.590;2023-04-08T04:06:19;100638.37;;;0.52;100.00
51526;BME280;37611;51.794;21.590;2023-04-08T04:10:21;100642.43;;;0.57;100.00
51526;BME280;37611;51.794;21.590;2023-04-08T04:14:23;100643.02;;;0.63;100.00
51526;BME280;37611;51.794;21.590;2023-04-08T04:18:24;100643.30;;;0.68;100.00
51526;BME280;37611;51.794;21.590;2023-04-08T04:22:26;100644.64;;;0.72;100.00
51526;BME280;37611;51.794;21.590;2023-04-08T04:26:28;100647.86;;;0.77;100.00
51526;BME280;37611;51.794;21.590;2023-04-08T04:30:29;100651.67;;;0.84;100.00
51526;BME280;37611;51.794;21.590;2023-04-08T04:34:31;100656.14;;;0.91;100.00
51526;BME280;37611;51.794;21.590;2023-04-08T04:38:33;100659.98;;;1.01;100.00
51526;BME280;37611;51.794;21.590;2023-04-08T04:42:34;100660.86;;;1.11;100.00
51526;BME280;37611;51.794;21.590;2023-04-08T04:46:36;100664.30;;;1.25;100.00
51526;BME280;37611;51.794;21.590;2023-04-08T04:50:38;100668.96;;;1.49;100.00
51526;BME280;37611;51.794;21.590;2023-04-08T04:54:40;100668.86;;;1.91;100.00
51526;BME280;37611;51.794;21.590;2023-04-08T04:58:41;100679.27;;;2.48;100.00
51526;BME280;37611;51.794;21.590;2023-04-08T05:02:43;100677.18;;;3.07;100.00
51526;BME280;37611;51.794;21.590;2023-04-08T05:06:45;100681.67;;;3.61;100.00
51526;BME280;37611;51.794;21.590;2023-04-08T05:10:46;100688.55;;;4.03;100.00
51526;BME280;37611;51.794;21.590;2023-04-08T05:14:50;100692.13;;;4.43;100.00
51526;BME280;37611;51.794;21.590;2023-04-08T05:18:52;100695.89;;;4.82;100.00
51526;BME280;37611;51.794;21.590;2023-04-08T05:22:53;100701.16;;;5.08;100.00
51526;BME280;37611;51.794;21.590;2023-04-08T05:26:55;100700.19;;;5.31;100.00
51526;BME280;37611;51.794;21.590;2023-04-08T05:30:58;100703.36;;;5.69;100.00
51526;BME280;37611;51.794;21.590;2023-04-08T05:35:02;100703.80;;;5.86;100.00
51526;BME280;37611;51.794;21.590;2023-04-08T05:39:04;100699.76;;;6.05;100.00
51526;BME280;37611;51.794;21.590;2023-04-08T05:43:05;100699.48;;;6.34;100.00
51526;BME280;37611;51.794;21.590;2023-04-08T05:47:07;100707.80;;;6.69;100.00
51526;BME280;37611;51.794;21.590;2023-04-08T05:51:15;100706.64;;;7.01;100.00
51526;BME280;37611;51.794;21.590;2023-04-08T05:55:18;100707.52;;;7.25;100.00
51526;BME280;37611;51.794;21.590;2023-04-08T05:59:19;100711.96;;;7.66;99.99
51526;BME280;37611;51.794;21.590;2023-04-08T06:03:21;100713.79;;;7.95;98.85
51526;BME280;37611;51.794;21.590;2023-04-08T06:07:23;100714.52;;;8.17;98.74
51526;BME280;37611;51.794;21.590;2023-04-08T06:11:24;100713.61;;;8.40;97.43
51526;BME280;37611;51.794;21.590;2023-04-08T06:15:27;100714.77;;;8.56;97.16
51526;BME280;37611;51.794;21.590;2023-04-08T06:19:29;100720.42;;;8.73;96.41
51526;BME280;37611;51.794;21.590;2023-04-08T06:23:30;100729.08;;;8.41;95.28
51526;BME280;37611;51.794;21.590;2023-04-08T06:27:32;100727.02;;;8.26;96.47
51526;BME280;37611;51.794;21.590;2023-04-08T06:31:33;100732.16;;;8.30;95.06
51526;BME280;37611;51.794;21.590;2023-04-08T06:35:36;100732.40;;;8.18;94.52
51526;BME280;37611;51.794;21.590;2023-04-08T06:39:40;100732.92;;;8.15;93.40
51526;BME280;37611;51.794;21.590;2023-04-08T06:43:42;100737.39;;;8.42;93.45
51526;BME280;37611;51.794;21.590;2023-04-08T06:47:43;100740.98;;;8.49;91.79
51526;BME280;37611;51.794;21.590;2023-04-08T06:51:45;100741.65;;;8.78;91.62
51526;BME280;37611;51.794;21.590;2023-04-08T06:55:47;100746.64;;;9.09;91.02
51526;BME280;37611;51.794;21.590;2023-04-08T06:59:48;100751.09;;;9.32;89.27
51526;BME280;37611;51.794;21.590;2023-04-08T07:03:50;100757.80;;;9.44;88.20
51526;BME280;37611;51.794;21.590;2023-04-08T07:07:52;100768.87;;;9.52;88.18
51526;BME280;37611;51.794;21.590;2023-04-08T07:11:54;100772.70;;;9.56;87.59
51526;BME280;37611;51.794;21.590;2023-04-08T07:15:56;100767.23;;;9.76;88.02
51526;BME280;37611;51.794;21.590;2023-04-08T07:19:57;100765.81;;;10.05;87.14
51526;BME280;37611;51.794;21.590;2023-04-08T07:23:59;100768.52;;;10.29;87.22
51526;BME280;37611;51.794;21.590;2023-04-08T07:28:01;100769.84;;;10.42;85.77
51526;BME280;37611;51.794;21.590;2023-04-08T07:32:03;100771.09;;;10.50;86.75
51526;BME280;37611;51.794;21.590;2023-04-08T07:36:05;100769.74;;;10.70;84.63
51526;BME280;37611;51.794;21.590;2023-04-08T07:40:07;100766.58;;;10.68;84.53
51526;BME280;37611;51.794;21.590;2023-04-08T07:44:09;100764.61;;;10.80;84.77
51526;BME280;37611;51.794;21.590;2023-04-08T07:48:11;100766.15;;;10.95;83.47
51526;BME280;37611;51.794;21.590;2023-04-08T07:52:12;100767.22;;;11.12;83.95
51526;BME280;37611;51.794;21.590;2023-04-08T07:56:15;100765.44;;;11.34;83.24
51526;BME280;37611;51.794;21.590;2023-04-08T08:00:18;100759.79;;;11.50;82.35
51526;BME280;37611;51.794;21.590;2023-04-08T08:04:22;100762.16;;;11.57;81.76
51526;BME280;37611;51.794;21.590;2023-04-08T08:08:26;100762.77;;;11.56;80.80
51526;BME280;37611;51.794;21.590;2023-04-08T08:12:27;100761.02;;;11.56;81.57
51526;BME280;37611;51.794;21.590;2023-04-08T08:16:30;100767.25;;;11.82;81.95
51526;BME280;37611;51.794;21.590;2023-04-08T08:20:34;100766.66;;;12.05;80.71
51526;BME280;37611;51.794;21.590;2023-04-08T08:24:36;100767.38;;;12.09;80.23
51526;BME280;37611;51.794;21.590;2023-04-08T08:28:38;100766.29;;;12.17;80.08
51526;BME280;37611;51.794;21.590;2023-04-08T08:32:40;100765.09;;;12.20;78.97
51526;BME280;37611;51.794;21.590;2023-04-08T08:36:42;100769.44;;;12.11;78.82
51526;BME280;37611;51.794;21.590;2023-04-08T08:40:44;100771.25;;;12.11;78.41
51526;BME280;37611;51.794;21.590;2023-04-08T08:44:46;100772.22;;;12.19;79.06
51526;BME280;37611;51.794;21.590;2023-04-08T08:48:48;100771.02;;;12.41;78.83
51526;BME280;37611;51.794;21.590;2023-04-08T08:52:51;100777.86;;;12.47;78.18
51526;BME280;37611;51.794;21.590;2023-04-08T08:56:53;100776.73;;;12.60;77.66
51526;BME280;37611;51.794;21.590;2023-04-08T09:00:55;100775.80;;;12.48;76.93
51526;BME280;37611;51.794;21.590;2023-04-08T09:05:04;100776.70;;;12.42;76.09
51526;BME280;37611;51.794;21.590;2023-04-08T09:09:06;100779.55;;;12.10;76.99
51526;BME280;37611;51.794;21.590;2023-04-08T09:13:10;100777.36;;;12.13;77.79
51526;BME280;37611;51.794;21.590;2023-04-08T09:17:12;100775.65;;;12.25;77.25
51526;BME280;37611;51.794;21.590;2023-04-08T09:21:21;100782.80;;;12.20;77.07
51526;BME280;37611;51.794;21.590;2023-04-08T09:25:24;100783.06;;;12.06;77.23
51526;BME280;37611;51.794;21.590;2023-04-08T09:29:26;100777.70;;;12.09;77.43
51526;BME280;37611;51.794;21.590;2023-04-08T09:33:31;100781.87;;;12.17;77.01
51526;BME280;37611;51.794;21.590;2023-04-08T09:37:33;100778.27;;;12.29;76.30
51526;BME280;37611;51.794;21.590;2023-04-08T09:41:36;100775.36;;;12.25;76.53
51526;BME280;37611;51.794;21.590;2023-04-08T09:45:38;100775.29;;;12.46;75.89
51526;BME280;37611;51.794;21.590;2023-04-08T09:49:49;100775.45;;;12.57;74.31
51526;BME280;37611;51.794;21.590;2023-04-08T09:53:58;100775.77;;;12.48;73.78
51526;BME280;37611;51.794;21.590;2023-04-08T09:58:10;100775.83;;;12.42;73.28
51526;BME280;37611;51.794;21.590;2023-04-08T10:02:24;100777.75;;;12.46;73.12
51526;BME280;37611;51.794;21.590;2023-04-08T10:06:30;100766.27;;;12.52;73.26
51526;BME280;37611;51.794;21.590;2023-04-08T10:10:34;100766.64;;;12.63;72.31
51526;BME280;37611;51.794;21.590;2023-04-08T10:14:39;100763.74;;;12.57;71.62
51526;BME280;37611;51.794;21.590;2023-04-08T10:18:41;100762.88;;;12.57;72.53
51526;BME280;37611;51.794;21.590;2023-04-08T10:22:46;100763.07;;;12.69;72.84
51526;BME280;37611;51.794;21.590;2023-04-08T10:26:49;100760.50;;;12.87;72.65
51526;BME280;37611;51.794;21.590;2023-04-08T10:30:52;100755.44;;;12.92;73.34
51526;BME280;37611;51.794;21.590;2023-04-08T10:34:54;100758.85;;;13.02;72.56
51526;BME280;37611;51.794;21.590;2023-04-08T10:38:56;100751.39;;;12.97;72.70
51526;BME280;37611;51.794;21.590;2023-04-08T10:42:58;100753.33;;;12.88;70.50
51526;BME280;37611;51.794;21.590;2023-04-08T10:47:00;100747.85;;;12.74;72.33
51526;BME280;37611;51.794;21.590;2023-04-08T10:51:03;100743.90;;;12.79;71.83
51526;BME280;37611;51.794;21.590;2023-04-08T10:55:06;100744.61;;;12.86;71.65
51526;BME280;37611;51.794;21.590;2023-04-08T10:59:08;100741.77;;;13.06;71.78
51526;BME280;37611;51.794;21.590;2023-04-08T11:03:10;100735.52;;;13.07;71.87
51526;BME280;37611;51.794;21.590;2023-04-08T11:07:12;100737.34;;;13.14;70.97
51526;BME280;37611;51.794;21.590;2023-04-08T11:11:14;100730.25;;;13.07;69.76
51526;BME280;37611;51.794;21.590;2023-04-08T11:15:16;100734.23;;;13.16;69.57
51526;BME280;37611;51.794;21.590;2023-04-08T11:19:18;100728.54;;;13.03;68.35
51526;BME280;37611;51.794;21.590;2023-04-08T11:23:20;100727.39;;;13.00;67.60
51526;BME280;37611;51.794;21.590;2023-04-08T11:27:23;100718.91;;;12.93;67.36
51526;BME280;37611;51.794;21.590;2023-04-08T11:31:26;100719.05;;;13.01;67.22
51526;BME280;37611;51.794;21.590;2023-04-08T11:35:29;100713.30;;;13.11;68.55
51526;BME280;37611;51.794;21.590;2023-04-08T11:39:31;100709.10;;;13.34;67.39
51526;BME280;37611;51.794;21.590;2023-04-08T11:43:33;100707.87;;;13.41;67.44
51526;BME280;37611;51.794;21.590;2023-04-08T11:47:37;100706.08;;;13.45;66.82
51526;BME280;37611;51.794;21.590;2023-04-08T11:51:58;100700.28;;;13.38;67.21
51526;BME280;37611;51.794;21.590;2023-04-08T11:56:15;100703.36;;;13.47;65.37
51526;BME280;37611;51.794;21.590;2023-04-08T12:00:18;100703.80;;;13.36;64.48
51526;BME280;37611;51.794;21.590;2023-04-08T12:04:20;100699.02;;;13.42;65.37
51526;BME280;37611;51.794;21.590;2023-04-08T12:08:21;100699.48;;;13.46;65.27
51526;BME280;37611;51.794;21.590;2023-04-08T12:12:23;100697.58;;;13.33;64.85
51526;BME280;37611;51.794;21.590;2023-04-08T12:16:25;100696.11;;;13.25;65.22
51526;BME280;37611;51.794;21.590;2023-04-08T12:20:27;100687.83;;;13.36;65.66
51526;BME280;37611;51.794;21.590;2023-04-08T12:24:29;100686.34;;;13.43;65.16
51526;BME280;37611;51.794;21.590;2023-04-08T12:28:31;100682.92;;;13.44;65.35
51526;BME280;37611;51.794;21.590;2023-04-08T12:32:32;100682.69;;;13.33;65.09
51526;BME280;37611;51.794;21.590;2023-04-08T12:36:35;100671.98;;;13.20;65.67
51526;BME280;37611;51.794;21.590;2023-04-08T12:40:36;100661.98;;;13.29;65.33
51526;BME280;37611;51.794;21.590;2023-04-08T12:44:38;100663.52;;;13.38;65.96
51526;BME280;37611;51.794;21.590;2023-04-08T12:48:40;100661.14;;;13.55;65.36
51526;BME280;37611;51.794;21.590;2023-04-08T12:52:42;100661.88;;;13.56;63.99
51526;BME280;37611;51.794;21.590;2023-04-08T12:56:44;100660.68;;;13.45;64.55
51526;BME280;37611;51.794;21.590;2023-04-08T13:00:46;100656.73;;;13.61;64.64
51526;BME280;37611;51.794;21.590;2023-04-08T13:04:47;100657.09;;;13.77;62.44
51526;BME280;37611;51.794;21.590;2023-04-08T13:08:50;100650.16;;;13.67;62.77
51526;BME280;37611;51.794;21.590;2023-04-08T13:12:52;100648.17;;;13.64;63.65
51526;BME280;37611;51.794;21.590;2023-04-08T13:16:53;100650.84;;;13.76;62.96
51526;BME280;37611;51.794;21.590;2023-04-08T13:20:55;100645.90;;;13.71;63.25
51526;BME280;37611;51.794;21.590;2023-04-08T13:24:59;100643.87;;;13.63;64.27
51526;BME280;37611;51.794;21.590;2023-04-08T13:29:02;100644.97;;;13.63;63.59
51526;BME280;37611;51.794;21.590;2023-04-08T13:33:04;100645.13;;;13.49;62.99
51526;BME280;37611;51.794;21.590;2023-04-08T13:37:06;100638.91;;;13.39;64.06
51526;BME280;37611;51.794;21.590;2023-04-08T13:41:07;100636.30;;;13.43;61.68
51526;BME280;37611;51.794;21.590;2023-04-08T13:45:09;100637.13;;;13.39;61.81
51526;BME280;37611;51.794;21.590;2023-04-08T13:49:11;100630.45;;;13.43;62.14
51526;BME280;37611;51.794;21.590;2023-04-08T13:53:14;100626.96;;;13.44;62.48
51526;BME280;37611;51.794;21.590;2023-04-08T13:57:15;100632.55;;;13.47;61.81
51526;BME280;37611;51.794;21.590;2023-04-08T14:01:17;100633.11;;;13.38;61.75
51526;BME280;37611;51.794;21.590;2023-04-08T14:05:19;100628.64;;;13.33;62.21
51526;BME280;37611;51.794;21.590;2023-04-08T14:09:20;100632.05;;;13.36;60.42
51526;BME280;37611;51.794;21.590;2023-04-08T14:13:22;100625.15;;;13.29;60.42
51526;BME280;37611;51.794;21.590;2023-04-08T14:17:24;100622.35;;;13.26;61.49
51526;BME280;37611;51.794;21.590;2023-04-08T14:21:26;100619.70;;;13.38;62.07
51526;BME280;37611;51.794;21.590;2023-04-08T14:25:28;100615.33;;;13.48;62.01
51526;BME280;37611;51.794;21.590;2023-04-08T14:29:29;100612.39;;;13.61;63.26
51526;BME280;37611;51.794;21.590;2023-04-08T14:33:31;100611.70;;;13.65;61.83
51526;BME280;37611;51.794;21.590;2023-04-08T14:37:33;100616.16;;;13.59;62.05
51526;BME280;37611;51.794;21.590;2023-04-08T14:41:35;100621.58;;;13.42;62.39
51526;BME280;37611;51.794;21.590;2023-04-08T14:45:37;100620.20;;;13.28;62.74
51526;BME280;37611;51.794;21.590;2023-04-08T14:49:38;100622.60;;;13.14;62.91
51526;BME280;37611;51.794;21.590;2023-04-08T14:53:40;100624.36;;;13.04;62.05
51526;BME280;37611;51.794;21.590;2023-04-08T14:57:42;100626.24;;;12.88;62.24
51526;BME280;37611;51.794;21.590;2023-04-08T15:01:43;100625.58;;;12.81;62.12
51526;BME280;37611;51.794;21.590;2023-04-08T15:05:46;100620.96;;;12.72;62.11
51526;BME280;37611;51.794;21.590;2023-04-08T15:09:47;100621.03;;;12.63;62.54
51526;BME280;37611;51.794;21.590;2023-04-08T15:13:49;100624.08;;;12.51;63.36
51526;BME280;37611;51.794;21.590;2023-04-08T15:17:51;100629.15;;;12.47;64.06
51526;BME280;37611;51.794;21.590;2023-04-08T15:21:52;100627.92;;;12.44;64.48
51526;BME280;37611;51.794;21.590;2023-04-08T15:25:55;100628.34;;;12.36;65.01
51526;BME280;37611;51.794;21.590;2023-04-08T15:29:57;100631.34;;;12.27;65.04
51526;BME280;37611;51.794;21.590;2023-04-08T15:33:59;100634.37;;;12.14;65.54
51526;BME280;37611;51.794;21.590;2023-04-08T15:38:03;100636.71;;;12.06;66.07
51526;BME280;37611;51.794;21.590;2023-04-08T15:42:04;100641.19;;;11.97;66.67
51526;BME280;37611;51.794;21.590;2023-04-08T15:46:06;100641.20;;;11.91;68.61
51526;BME280;37611;51.794;21.590;2023-04-08T15:50:08;100643.33;;;11.91;69.13
51526;BME280;37611;51.794;21.590;2023-04-08T15:54:10;100644.00;;;11.86;70.00
51526;BME280;37611;51.794;21.590;2023-04-08T15:58:12;100649.13;;;11.82;69.92
51526;BME280;37611;51.794;21.590;2023-04-08T16:02:13;100645.30;;;11.72;69.88
51526;BME280;37611;51.794;21.590;2023-04-08T16:06:16;100649.41;;;11.66;70.09
51526;BME280;37611;51.794;21.590;2023-04-08T16:10:17;100650.14;;;11.56;70.29
51526;BME280;37611;51.794;21.590;2023-04-08T16:14:19;100651.82;;;11.47;71.11
51526;BME280;37611;51.794;21.590;2023-04-08T16:18:21;100653.73;;;11.44;71.57
51526;BME280;37611;51.794;21.590;2023-04-08T16:22:22;100656.98;;;11.41;71.60
51526;BME280;37611;51.794;21.590;2023-04-08T16:26:24;100656.88;;;11.36;72.03
51526;BME280;37611;51.794;21.590;2023-04-08T16:30:27;100652.64;;;11.33;72.25
51526;BME280;37611;51.794;21.590;2023-04-08T16:34:29;100655.59;;;11.25;72.51
51526;BME280;37611;51.794;21.590;2023-04-08T16:38:31;100656.19;;;11.19;72.61
51526;BME280;37611;51.794;21.590;2023-04-08T16:42:33;100655.39;;;11.12;73.06
51526;BME280;37611;51.794;21.590;2023-04-08T16:46:35;100658.77;;;11.08;73.13
51526;BME280;37611;51.794;21.590;2023-04-08T16:50:41;100658.27;;;11.01;73.64
51526;BME280;37611;51.794;21.590;2023-04-08T16:54:43;100661.06;;;10.96;73.89
51526;BME280;37611;51.794;21.590;2023-04-08T16:58:46;100666.51;;;10.88;74.07
51526;BME280;37611;51.794;21.590;2023-04-08T17:02:48;100667.73;;;10.80;74.40
51526;BME280;37611;51.794;21.590;2023-04-08T17:06:49;100671.26;;;10.74;74.33
51526;BME280;37611;51.794;21.590;2023-04-08T17:10:52;100673.69;;;10.69;74.35
51526;BME280;37611;51.794;21.590;2023-04-08T17:14:54;100671.90;;;10.63;74.30
51526;BME280;37611;51.794;21.590;2023-04-08T17:18:56;100671.11;;;10.56;74.38
51526;BME280;37611;51.794;21.590;2023-04-08T17:22:57;100671.42;;;10.50;74.65
51526;BME280;37611;51.794;21.590;2023-04-08T17:26:59;100675.98;;;10.46;74.88
51526;BME280;37611;51.794;21.590;2023-04-08T17:31:01;100677.33;;;10.41;75.09
51526;BME280;37611;51.794;21.590;2023-04-08T17:35:03;100677.03;;;10.35;75.54
51526;BME280;37611;51.794;21.590;2023-04-08T17:39:05;100682.89;;;10.32;75.78
51526;BME280;37611;51.794;21.590;2023-04-08T17:43:06;100683.31;;;10.26;76.25
51526;BME280;37611;51.794;21.590;2023-04-08T17:47:08;100685.77;;;10.22;76.69
51526;BME280;37611;51.794;21.590;2023-04-08T17:51:10;100691.95;;;10.17;76.90
51526;BME280;37611;51.794;21.590;2023-04-08T17:55:13;100688.38;;;10.13;77.38
51526;BME280;37611;51.794;21.590;2023-04-08T17:59:15;100690.64;;;10.08;78.04
51526;BME280;37611;51.794;21.590;2023-04-08T18:03:17;100695.15;;;10.02;78.70
51526;BME280;37611;51.794;21.590;2023-04-08T18:07:19;100699.27;;;9.98;79.77
51526;BME280;37611;51.794;21.590;2023-04-08T18:11:21;100708.04;;;9.89;80.61
51526;BME280;37611;51.794;21.590;2023-04-08T18:15:24;100712.12;;;9.82;81.65
51526;BME280;37611;51.794;21.590;2023-04-08T18:19:26;100716.70;;;9.75;82.82
51526;BME280;37611;51.794;21.590;2023-04-08T18:23:28;100726.55;;;9.69;83.46
51526;BME280;37611;51.794;21.590;2023-04-08T18:27:29;100731.19;;;9.66;84.61
51526;BME280;37611;51.794;21.590;2023-04-08T18:31:31;100736.13;;;9.59;85.05
51526;BME280;37611;51.794;21.590;2023-04-08T18:35:33;100736.80;;;9.57;85.18
51526;BME280;37611;51.794;21.590;2023-04-08T18:39:38;100740.50;;;9.54;85.53
51526;BME280;37611;51.794;21.590;2023-04-08T18:43:40;100739.76;;;9.51;85.92
51526;BME280;37611;51.794;21.590;2023-04-08T18:47:42;100740.35;;;9.48;85.72
51526;BME280;37611;51.794;21.590;2023-04-08T18:51:44;100742.38;;;9.47;86.26
51526;BME280;37611;51.794;21.590;2023-04-08T18:55:46;100742.83;;;9.43;86.81
51526;BME280;37611;51.794;21.590;2023-04-08T18:59:47;100741.02;;;9.40;87.75
51526;BME280;37611;51.794;21.590;2023-04-08T19:03:49;100743.50;;;9.35;88.58
51526;BME280;37611;51.794;21.590;2023-04-08T19:07:51;100741.64;;;9.30;89.76
51526;BME280;37611;51.794;21.590;2023-04-08T19:11:53;100738.95;;;9.24;89.92
51526;BME280;37611;51.794;21.590;2023-04-08T19:15:55;100736.59;;;9.19;90.79
51526;BME280;37611;51.794;21.590;2023-04-08T19:19:57;100735.32;;;9.14;91.61
51526;BME280;37611;51.794;21.590;2023-04-08T19:23:59;100732.66;;;9.09;91.71
51526;BME280;37611;51.794;21.590;2023-04-08T19:28:01;100731.41;;;9.08;92.28
51526;BME280;37611;51.794;21.590;2023-04-08T19:32:03;100733.62;;;9.06;93.01
51526;BME280;37611;51.794;21.590;2023-04-08T19:36:05;100727.30;;;9.04;93.20
51526;BME280;37611;51.794;21.590;2023-04-08T19:40:07;100727.02;;;9.03;93.49
51526;BME280;37611;51.794;21.590;2023-04-08T19:44:10;100728.52;;;9.02;94.59
51526;BME280;37611;51.794;21.590;2023-04-08T19:48:11;100723.16;;;8.99;94.76
51526;BME280;37611;51.794;21.590;2023-04-08T19:52:13;100723.39;;;8.97;94.39
51526;BME280;37611;51.794;21.590;2023-04-08T19:56:15;100718.91;;;8.98;94.92
51526;BME280;37611;51.794;21.590;2023-04-08T20:00:17;100722.27;;;8.95;95.08
51526;BME280;37611;51.794;21.590;2023-04-08T20:04:19;100721.91;;;8.98;94.64
51526;BME280;37611;51.794;21.590;2023-04-08T20:08:20;100720.21;;;8.99;94.72
51526;BME280;37611;51.794;21.590;2023-04-08T20:12:23;100715.47;;;9.00;95.21
51526;BME280;37611;51.794;21.590;2023-04-08T20:16:25;100717.66;;;8.98;95.04
51526;BME280;37611;51.794;21.590;2023-04-08T20:20:27;100715.66;;;8.97;95.27
51526;BME280;37611;51.794;21.590;2023-04-08T20:24:29;100711.39;;;8.94;95.54
51526;BME280;37611;51.794;21.590;2023-04-08T20:28:31;100717.95;;;8.91;95.46
51526;BME280;37611;51.794;21.590;2023-04-08T20:32:32;100721.02;;;8.91;95.72
51526;BME280;37611;51.794;21.590;2023-04-08T20:36:35;100723.46;;;8.90;95.92
51526;BME280;37611;51.794;21.590;2023-04-08T20:40:41;100717.91;;;8.87;96.18
51526;BME280;37611;51.794;21.590;2023-04-08T20:44:44;100715.02;;;8.83;96.30
51526;BME280;37611;51.794;21.590;2023-04-08T20:48:46;100713.76;;;8.82;96.41
51526;BME280;37611;51.794;21.590;2023-04-08T20:52:47;100718.66;;;8.79;96.66
51526;BME280;37611;51.794;21.590;2023-04-08T20:56:49;100714.34;;;8.79;97.02